Time;durP1;ratioP1;P1;durP2;ratioP2;P2;SDS_P1;SDS_P2;PMS_P1;PMS_P2;Temp;Humidity;BMP_temperature;BMP_pressure;BME280_temperature;BME280_humidity;BME280_pressure;Samples;Min_cycle;Max_cycle;Signal;HPM_P1;HPM_P2
2021/10/30 00:00:09;;;;;;;19.03;15.47;;;11.80;99.90;;;;;;5072251;28;20201;-83
2021/10/30 00:02:36;;;;;;;17.87;14.07;;;11.80;99.90;;;;;;5071934;28;20209;-83
2021/10/30 00:05:04;;;;;;;20.37;14.67;;;11.80;99.90;;;;;;5071183;28;20213;-83
2021/10/30 00:07:31;;;;;;;17.60;13.43;;;11.80;99.90;;;;;;5085053;28;20651;-84
2021/10/30 00:09:58;;;;;;;20.23;15.20;;;11.80;99.90;;;;;;5092021;28;20208;-84
2021/10/30 00:12:26;;;;;;;17.50;13.77;;;11.80;99.90;;;;;;5078484;28;20201;-84
2021/10/30 00:14:53;;;;;;;19.40;15.33;;;11.80;99.90;;;;;;5072137;28;20212;-83
2021/10/30 00:17:20;;;;;;;19.90;16.40;;;11.80;99.90;;;;;;5083379;28;20241;-85
2021/10/30 00:19:46;;;;;;;22.37;16.17;;;11.80;99.90;;;;;;5091634;28;20202;-83
2021/10/30 00:22:13;;;;;;;20.37;15.73;;;11.80;99.90;;;;;;5092050;28;20200;-82
2021/10/30 00:24:40;;;;;;;21.50;15.50;;;11.70;99.90;;;;;;5090460;28;20212;-81
2021/10/30 00:27:10;;;;;;;22.73;17.20;;;11.70;99.90;;;;;;5071364;28;20221;-81
2021/10/30 00:29:38;;;;;;;19.83;15.20;;;11.70;99.90;;;;;;5087867;28;20593;-84
2021/10/30 00:32:06;;;;;;;22.43;15.93;;;11.70;99.90;;;;;;5091371;28;20637;-83
2021/10/30 00:34:33;;;;;;;21.17;16.43;;;11.60;99.90;;;;;;5092167;28;20208;-83
2021/10/30 00:37:00;;;;;;;19.53;15.50;;;11.60;99.90;;;;;;5078172;28;20205;-81
2021/10/30 00:39:27;;;;;;;20.30;16.13;;;11.50;99.90;;;;;;5069907;28;20204;-84
2021/10/30 00:41:56;;;;;;;23.30;17.00;;;11.60;99.90;;;;;;5071348;28;20213;-83
2021/10/30 00:44:23;;;;;;;22.43;17.87;;;11.50;99.90;;;;;;5071882;28;20209;-83
2021/10/30 00:46:53;;;;;;;25.17;18.17;;;11.50;99.90;;;;;;5071277;28;20584;-84
2021/10/30 00:49:22;;;;;;;24.33;18.33;;;11.50;99.90;;;;;;5069286;28;20213;-82
2021/10/30 00:51:53;;;;;;;24.50;18.03;;;11.50;99.90;;;;;;5070707;28;20251;-83
2021/10/30 00:54:20;;;;;;;20.70;17.27;;;11.50;99.90;;;;;;5070496;28;20201;-83
2021/10/30 00:56:49;;;;;;;26.50;19.37;;;11.40;99.90;;;;;;5069929;28;20198;-81
2021/10/30 00:59:17;;;;;;;22.47;18.67;;;11.40;99.90;;;;;;5075512;28;20200;-84
2021/10/30 01:01:47;;;;;;;25.10;18.43;;;11.40;99.90;;;;;;5070072;28;20217;-85
2021/10/30 01:04:17;;;;;;;24.10;20.13;;;11.40;99.90;;;;;;5069516;28;20225;-85
2021/10/30 01:06:45;;;;;;;27.00;19.50;;;11.40;99.90;;;;;;5070980;28;20209;-85
2021/10/30 01:09:12;;;;;;;23.23;19.43;;;11.40;99.90;;;;;;5071530;28;20211;-85
2021/10/30 01:11:39;;;;;;;25.43;19.37;;;11.40;99.90;;;;;;5078289;28;20234;-84
2021/10/30 01:14:08;;;;;;;26.10;20.10;;;11.30;99.90;;;;;;5091733;28;20607;-85
2021/10/30 01:16:36;;;;;;;26.50;20.43;;;11.30;99.90;;;;;;5092762;28;20197;-84
2021/10/30 01:19:02;;;;;;;23.73;19.13;;;11.30;99.90;;;;;;5092054;28;20205;-85
2021/10/30 01:21:32;;;;;;;24.73;19.80;;;11.30;99.90;;;;;;5091755;28;20201;-85
2021/10/30 01:24:00;;;;;;;25.00;18.57;;;11.30;99.90;;;;;;5092064;28;20196;-85
2021/10/30 01:26:27;;;;;;;24.37;18.37;;;11.30;99.90;;;;;;5090559;28;20201;-83
2021/10/30 01:28:54;;;;;;;23.00;18.07;;;11.30;99.90;;;;;;5091759;28;20231;-84
2021/10/30 01:31:21;;;;;;;24.67;18.47;;;11.30;99.90;;;;;;5091450;28;20524;-84
2021/10/30 01:33:49;;;;;;;26.17;18.43;;;11.30;99.90;;;;;;5072383;28;20240;-85
2021/10/30 01:36:19;;;;;;;19.90;17.33;;;11.30;99.90;;;;;;5071459;28;20200;-85
2021/10/30 01:38:48;;;;;;;24.70;18.33;;;11.30;99.90;;;;;;5071390;28;20193;-82
2021/10/30 01:41:15;;;;;;;26.27;18.43;;;11.40;99.90;;;;;;5070932;28;20194;-85
2021/10/30 01:43:42;;;;;;;19.13;15.77;;;11.30;99.90;;;;;;5071615;28;20193;-84
2021/10/30 01:46:09;;;;;;;21.27;16.63;;;11.30;99.90;;;;;;5071215;28;20882;-85
2021/10/30 01:48:38;;;;;;;20.70;15.90;;;11.30;99.90;;;;;;5070795;28;20236;-86
2021/10/30 01:51:06;;;;;;;22.57;16.73;;;11.30;99.90;;;;;;5070921;28;20205;-86
2021/10/30 01:53:33;;;;;;;19.20;16.50;;;11.30;99.90;;;;;;5070828;28;20209;-84
2021/10/30 01:56:01;;;;;;;19.13;16.73;;;11.30;99.90;;;;;;5080258;28;20220;-85
2021/10/30 01:58:28;;;;;;;20.20;17.10;;;11.20;99.90;;;;;;5091078;28;20364;-83
2021/10/30 02:00:57;;;;;;;25.70;17.27;;;11.20;99.90;;;;;;5090996;28;20204;-83
2021/10/30 02:03:24;;;;;;;23.10;17.77;;;11.20;99.90;;;;;;5090584;28;20211;-83
2021/10/30 02:05:52;;;;;;;20.13;16.77;;;11.30;99.90;;;;;;5071969;28;20351;-84
2021/10/30 02:08:20;;;;;;;22.60;17.57;;;11.30;99.90;;;;;;5070191;28;20225;-82
2021/10/30 02:10:48;;;;;;;22.97;16.63;;;11.30;99.90;;;;;;5070485;28;20212;-84
2021/10/30 02:13:16;;;;;;;22.53;17.47;;;11.30;99.90;;;;;;5070935;28;20201;-84
2021/10/30 02:15:43;;;;;;;22.93;17.97;;;11.30;99.90;;;;;;5070749;28;20201;-85
2021/10/30 02:18:10;;;;;;;21.80;17.53;;;11.30;99.90;;;;;;5068678;28;20208;-84
2021/10/30 02:20:37;;;;;;;27.00;19.90;;;11.30;99.90;;;;;;5070337;28;20216;-84
2021/10/30 02:23:04;;;;;;;23.77;18.20;;;11.30;99.90;;;;;;5070146;28;20518;-85
2021/10/30 02:25:31;;;;;;;26.73;18.93;;;11.40;99.90;;;;;;5069067;28;20223;-82
2021/10/30 02:27:58;;;;;;;25.23;18.43;;;11.40;99.90;;;;;;5070503;28;20221;-83
2021/10/30 02:30:26;;;;;;;24.57;20.50;;;11.40;99.90;;;;;;5071217;28;20204;-85
2021/10/30 02:32:54;;;;;;;26.67;20.50;;;11.40;99.90;;;;;;5067239;28;20209;-85
2021/10/30 02:35:20;;;;;;;24.87;20.20;;;11.40;99.90;;;;;;5069001;28;20331;-86
2021/10/30 02:37:47;;;;;;;27.50;20.37;;;11.50;99.90;;;;;;5071978;28;20204;-84
2021/10/30 02:40:14;;;;;;;27.30;21.00;;;11.50;99.90;;;;;;5074936;28;20484;-84
2021/10/30 02:42:41;;;;;;;27.17;20.50;;;11.50;99.90;;;;;;5075106;28;20198;-85
2021/10/30 02:45:09;;;;;;;27.83;20.73;;;11.50;99.90;;;;;;5075033;28;20197;-84
2021/10/30 02:47:37;;;;;;;27.17;21.13;;;11.60;99.90;;;;;;5074029;28;20221;-85
2021/10/30 02:50:05;;;;;;;28.57;22.67;;;11.60;99.90;;;;;;5074717;28;20198;-85
2021/10/30 02:52:32;;;;;;;30.60;22.80;;;11.50;99.90;;;;;;5075183;28;20209;-85
2021/10/30 02:54:58;;;;;;;29.60;22.67;;;11.50;99.90;;;;;;5077646;28;20234;-85
2021/10/30 02:57:25;;;;;;;27.00;21.80;;;11.50;99.90;;;;;;5094680;28;20201;-84
2021/10/30 02:59:53;;;;;;;33.70;23.00;;;11.50;99.90;;;;;;5094149;28;20620;-85
2021/10/30 03:02:20;;;;;;;30.17;23.70;;;11.50;99.90;;;;;;5085575;28;20232;-84
2021/10/30 03:04:48;;;;;;;31.63;23.23;;;11.50;99.90;;;;;;5074468;28;20587;-85
2021/10/30 03:07:15;;;;;;;28.63;23.73;;;11.40;99.90;;;;;;5073965;28;20723;-84
2021/10/30 03:09:47;;;;;;;29.20;22.20;;;11.50;99.90;;;;;;5074388;28;20502;-85
2021/10/30 03:12:14;;;;;;;32.10;23.80;;;11.50;99.90;;;;;;5074850;28;20263;-85
2021/10/30 03:14:41;;;;;;;28.43;23.70;;;11.50;99.90;;;;;;5073679;28;20242;-84
2021/10/30 03:17:08;;;;;;;28.03;22.33;;;11.50;99.90;;;;;;5074213;28;20208;-86
2021/10/30 03:19:34;;;;;;;28.63;23.23;;;11.50;99.90;;;;;;5074154;28;20209;-85
2021/10/30 03:22:03;;;;;;;25.90;21.87;;;11.50;99.90;;;;;;5073931;28;20189;-85
2021/10/30 03:24:30;;;;;;;27.37;21.93;;;11.50;99.90;;;;;;5073553;28;20209;-83
2021/10/30 03:26:57;;;;;;;23.90;20.60;;;11.40;99.90;;;;;;5070847;28;20209;-84
2021/10/30 03:29:24;;;;;;;23.33;20.03;;;11.40;99.90;;;;;;5071400;28;20217;-84
2021/10/30 03:31:50;;;;;;;22.67;18.93;;;11.40;99.90;;;;;;5093927;28;20557;-85
2021/10/30 03:34:17;;;;;;;23.60;18.97;;;11.40;99.90;;;;;;5081127;28;20212;-85
2021/10/30 03:36:44;;;;;;;23.10;17.43;;;11.40;99.90;;;;;;5073016;28;20280;-84
2021/10/30 03:39:12;;;;;;;23.67;17.30;;;11.40;99.90;;;;;;5073764;28;20204;-84
2021/10/30 03:41:39;;;;;;;18.47;15.57;;;11.40;99.90;;;;;;5073959;28;20209;-84
2021/10/30 03:44:06;;;;;;;18.97;16.23;;;11.40;99.90;;;;;;5071904;28;20208;-84
2021/10/30 03:46:33;;;;;;;17.83;15.90;;;11.40;99.90;;;;;;5072100;28;20213;-83
2021/10/30 03:48:59;;;;;;;17.97;15.90;;;11.50;99.90;;;;;;5084560;28;20227;-83
2021/10/30 03:51:26;;;;;;;16.60;14.77;;;11.50;99.90;;;;;;5092936;28;20204;-84
2021/10/30 03:53:53;;;;;;;18.27;14.77;;;11.50;99.90;;;;;;5093279;28;20192;-82
2021/10/30 03:56:21;;;;;;;16.90;14.43;;;11.50;99.90;;;;;;5092945;28;20236;-84
2021/10/30 03:58:48;;;;;;;18.43;13.80;;;11.60;99.90;;;;;;5073010;28;20212;-84
2021/10/30 04:01:14;;;;;;;18.87;15.00;;;11.60;99.90;;;;;;5076002;28;20216;-85
2021/10/30 04:03:41;;;;;;;18.07;13.90;;;11.60;99.90;;;;;;5090371;28;20215;-85
2021/10/30 04:06:08;;;;;;;14.87;12.47;;;11.60;99.90;;;;;;5091849;28;20558;-84
2021/10/30 04:08:35;;;;;;;15.90;14.13;;;11.60;99.90;;;;;;5093319;28;20296;-85
2021/10/30 04:11:02;;;;;;;19.50;13.93;;;11.60;99.90;;;;;;5094111;28;20204;-83
2021/10/30 04:13:30;;;;;;;16.87;15.03;;;11.60;99.90;;;;;;5092947;28;20319;-83
2021/10/30 04:15:57;;;;;;;21.50;15.57;;;11.60;99.90;;;;;;5078591;28;20216;-84
2021/10/30 04:18:24;;;;;;;16.97;14.53;;;11.70;99.90;;;;;;5073203;28;20215;-83
2021/10/30 04:20:51;;;;;;;19.53;15.10;;;11.70;99.90;;;;;;5083914;28;20205;-86
2021/10/30 04:23:17;;;;;;;19.43;14.67;;;11.70;99.90;;;;;;5090600;28;20863;-83
2021/10/30 04:25:44;;;;;;;16.33;14.57;;;11.80;99.90;;;;;;5072788;28;20209;-84
2021/10/30 04:28:11;;;;;;;16.60;14.53;;;11.80;99.90;;;;;;5071012;28;20225;-86
2021/10/30 04:30:39;;;;;;;18.63;14.60;;;11.80;99.90;;;;;;5070013;28;20213;-85
2021/10/30 04:33:07;;;;;;;18.30;14.93;;;11.80;99.90;;;;;;5069912;28;20198;-86
2021/10/30 04:35:35;;;;;;;16.70;13.83;;;11.90;99.90;;;;;;5072293;28;20232;-86
2021/10/30 04:38:02;;;;;;;18.40;14.23;;;11.80;99.90;;;;;;5090705;28;20204;-84
2021/10/30 04:40:29;;;;;;;17.47;13.90;;;11.90;99.90;;;;;;5090574;28;20219;-85
2021/10/30 04:42:56;;;;;;;15.80;13.60;;;11.90;99.90;;;;;;5090051;28;20207;-85
2021/10/30 04:45:23;;;;;;;17.03;14.27;;;12.00;99.90;;;;;;5080233;28;20616;-85
2021/10/30 04:47:51;;;;;;;17.47;14.17;;;12.00;99.90;;;;;;5069727;28;20208;-86
2021/10/30 04:50:18;;;;;;;17.93;14.80;;;12.00;99.90;;;;;;5068235;28;20704;-85
2021/10/30 04:52:45;;;;;;;18.43;14.43;;;12.00;99.90;;;;;;5067652;28;20217;-85
2021/10/30 04:55:12;;;;;;;18.10;14.67;;;12.00;99.90;;;;;;5069012;28;20641;-85
2021/10/30 04:57:39;;;;;;;17.60;13.93;;;12.00;99.90;;;;;;5069971;28;20204;-85
2021/10/30 05:00:07;;;;;;;19.13;14.97;;;12.00;99.90;;;;;;5084980;28;20212;-86
2021/10/30 05:02:33;;;;;;;15.43;13.70;;;12.00;99.90;;;;;;5088343;28;20204;-85
2021/10/30 05:05:02;;;;;;;16.80;13.40;;;12.00;99.90;;;;;;5089520;28;20224;-86
2021/10/30 05:07:28;;;;;;;18.97;14.03;;;12.10;99.90;;;;;;5084222;28;20207;-86
2021/10/30 05:09:55;;;;;;;16.70;13.80;;;12.10;99.90;;;;;;5068267;28;20225;-85
2021/10/30 05:12:22;;;;;;;17.77;14.47;;;12.10;99.90;;;;;;5068269;28;20205;-84
2021/10/30 05:14:49;;;;;;;15.37;13.10;;;12.10;99.90;;;;;;5071169;28;20204;-86
2021/10/30 05:17:16;;;;;;;16.87;14.17;;;12.10;99.90;;;;;;5071355;28;20199;-85
2021/10/30 05:19:43;;;;;;;14.47;12.97;;;12.10;99.90;;;;;;5072047;28;20204;-83
2021/10/30 05:22:11;;;;;;;19.10;13.27;;;12.10;99.90;;;;;;5070678;28;20213;-85
2021/10/30 05:24:38;;;;;;;14.97;13.47;;;12.10;99.90;;;;;;5071365;28;20213;-85
2021/10/30 05:27:05;;;;;;;17.27;14.00;;;12.10;99.90;;;;;;5071796;28;20200;-84
2021/10/30 05:29:32;;;;;;;18.27;13.37;;;12.10;99.90;;;;;;5070583;28;20228;-85
2021/10/30 05:31:58;;;;;;;14.60;12.70;;;12.10;99.90;;;;;;5070866;28;20220;-84
2021/10/30 05:34:25;;;;;;;14.83;13.33;;;12.10;99.90;;;;;;5070380;28;20201;-84
2021/10/30 05:36:53;;;;;;;16.63;13.73;;;12.20;99.90;;;;;;5070879;28;20204;-86
2021/10/30 05:39:23;;;;;;;14.80;12.50;;;12.20;99.90;;;;;;5071758;28;20516;-83
2021/10/30 05:41:50;;;;;;;16.90;13.33;;;12.10;99.90;;;;;;5071358;28;20209;-84
2021/10/30 05:44:17;;;;;;;16.47;13.83;;;12.10;99.90;;;;;;5071477;28;20213;-86
2021/10/30 05:46:44;;;;;;;19.07;14.00;;;12.20;99.90;;;;;;5071760;28;20197;-87
2021/10/30 05:49:12;;;;;;;15.20;12.87;;;12.20;99.90;;;;;;5071518;28;20244;-85
2021/10/30 05:51:39;;;;;;;16.30;13.43;;;12.10;99.90;;;;;;5071929;28;20259;-84
2021/10/30 05:54:06;;;;;;;17.07;14.17;;;12.20;99.90;;;;;;5071103;28;20205;-86
2021/10/30 05:56:34;;;;;;;17.97;13.87;;;12.20;99.90;;;;;;5070928;28;20656;-85
2021/10/30 05:59:01;;;;;;;17.00;14.27;;;12.10;99.90;;;;;;5070766;28;20567;-86
2021/10/30 06:01:28;;;;;;;15.87;13.93;;;12.10;99.90;;;;;;5071668;28;20208;-88
2021/10/30 06:03:56;;;;;;;18.63;14.90;;;12.20;99.90;;;;;;5068941;28;20259;-87
2021/10/30 06:06:22;;;;;;;15.20;13.60;;;12.10;99.90;;;;;;5082015;28;20274;-86
2021/10/30 06:08:49;;;;;;;17.70;13.47;;;12.20;99.90;;;;;;5091492;28;20526;-85
2021/10/30 06:11:16;;;;;;;15.73;13.73;;;12.20;99.90;;;;;;5091051;28;20515;-86
2021/10/30 06:13:44;;;;;;;16.47;13.87;;;12.20;99.90;;;;;;5091235;28;20201;-88
2021/10/30 06:16:11;;;;;;;15.77;13.43;;;12.20;99.90;;;;;;5092022;28;20510;-90
2021/10/30 06:18:38;;;;;;;17.17;14.33;;;12.20;99.90;;;;;;5090682;28;20200;-89
2021/10/30 06:21:05;;;;;;;15.90;13.97;;;12.30;99.90;;;;;;5071422;28;20216;-87
2021/10/30 06:23:32;;;;;;;19.10;14.53;;;12.20;99.90;;;;;;5071213;28;20208;-87
2021/10/30 06:25:58;;;;;;;21.17;14.73;;;12.30;99.90;;;;;;5091138;28;20212;-88
2021/10/30 06:28:25;;;;;;;16.10;13.47;;;12.30;99.90;;;;;;5090899;28;20208;-87
2021/10/30 06:30:53;;;;;;;19.10;15.03;;;12.30;99.90;;;;;;5091408;28;20307;-84
2021/10/30 06:33:20;;;;;;;19.23;15.53;;;12.30;99.90;;;;;;5091708;28;20196;-85
2021/10/30 06:35:47;;;;;;;17.37;15.33;;;12.20;99.90;;;;;;5075829;28;20205;-87
2021/10/30 06:38:14;;;;;;;17.40;15.13;;;12.30;99.90;;;;;;5071095;28;20224;-89
2021/10/30 06:40:41;;;;;;;20.43;15.13;;;12.30;99.90;;;;;;5070567;28;20204;-86
2021/10/30 06:43:08;;;;;;;16.47;14.40;;;12.20;99.90;;;;;;5082601;28;20255;-90
2021/10/30 06:45:34;;;;;;;19.93;14.47;;;12.20;99.90;;;;;;5090105;28;20201;-86
2021/10/30 06:48:03;;;;;;;22.73;15.37;;;12.30;99.90;;;;;;5091369;28;20205;-85
2021/10/30 06:50:31;;;;;;;18.60;14.27;;;12.30;99.90;;;;;;5091522;28;20228;-85
2021/10/30 06:52:58;;;;;;;17.27;14.00;;;12.30;99.90;;;;;;5073955;28;20296;-86
2021/10/30 06:55:25;;;;;;;19.30;14.40;;;12.30;99.90;;;;;;5071363;28;20239;-85
2021/10/30 06:57:52;;;;;;;18.00;15.23;;;12.30;99.90;;;;;;5071427;28;20213;-85
2021/10/30 07:00:19;;;;;;;20.50;15.37;;;12.30;99.90;;;;;;5070516;28;20205;-89
2021/10/30 07:02:47;;;;;;;22.30;17.03;;;12.30;99.90;;;;;;5070684;28;20292;-85
2021/10/30 07:05:16;;;;;;;18.97;15.37;;;12.30;99.90;;;;;;5069687;28;20229;-86
2021/10/30 07:07:43;;;;;;;19.27;15.00;;;12.30;99.90;;;;;;5071071;28;20263;-85
2021/10/30 07:10:10;;;;;;;22.23;14.97;;;12.30;99.90;;;;;;5071415;28;20240;-86
2021/10/30 07:12:39;;;;;;;21.37;15.40;;;12.30;99.90;;;;;;5071278;28;20201;-88
2021/10/30 07:15:07;;;;;;;17.90;15.23;;;12.30;99.90;;;;;;5075004;28;20208;-87
2021/10/30 07:17:33;;;;;;;19.83;16.27;;;12.30;99.90;;;;;;5091386;28;20181;-87
2021/10/30 07:20:00;;;;;;;18.87;15.50;;;12.30;99.90;;;;;;5090593;28;20200;-88
2021/10/30 07:22:28;;;;;;;22.33;16.07;;;12.20;99.90;;;;;;5082131;28;20220;-84
2021/10/30 07:24:55;;;;;;;19.33;16.20;;;12.20;99.90;;;;;;5072532;28;20627;-85
2021/10/30 07:27:22;;;;;;;20.47;16.03;;;12.30;99.90;;;;;;5093153;28;20224;-86
2021/10/30 07:29:49;;;;;;;17.67;15.57;;;12.30;99.90;;;;;;5091375;28;20225;-85
2021/10/30 07:32:17;;;;;;;15.77;14.10;;;12.30;99.90;;;;;;5093985;28;20196;-84
2021/10/30 07:34:44;;;;;;;20.00;15.43;;;12.30;99.90;;;;;;5094505;28;20201;-86
2021/10/30 07:37:10;;;;;;;18.67;15.03;;;12.30;99.90;;;;;;5094502;28;20212;-88
2021/10/30 07:39:39;;;;;;;16.67;14.23;;;12.30;99.90;;;;;;5094531;28;20203;-90
2021/10/30 07:42:07;;;;;;;17.27;14.23;;;12.30;99.90;;;;;;5093560;28;20208;-84
2021/10/30 07:44:34;;;;;;;16.27;13.80;;;12.30;99.90;;;;;;5094225;28;20214;-86
2021/10/30 07:47:02;;;;;;;17.90;14.73;;;12.40;99.90;;;;;;5094467;28;20191;-88
2021/10/30 07:49:28;;;;;;;27.83;14.70;;;12.40;99.90;;;;;;5093600;28;20224;-84
2021/10/30 07:51:55;;;;;;;18.87;13.97;;;12.40;99.90;;;;;;5093360;28;20600;-84
2021/10/30 07:54:22;;;;;;;19.77;14.37;;;12.40;99.90;;;;;;5093808;28;20193;-84
2021/10/30 07:56:50;;;;;;;17.43;13.97;;;12.40;99.90;;;;;;5075541;28;20216;-85
2021/10/30 07:59:17;;;;;;;17.53;14.63;;;12.40;99.90;;;;;;5079457;28;20209;-83
2021/10/30 08:01:44;;;;;;;20.10;14.30;;;12.40;99.90;;;;;;5092481;28;20201;-84
2021/10/30 08:04:11;;;;;;;19.87;14.20;;;12.40;99.90;;;;;;5087000;28;20239;-86
2021/10/30 08:06:38;;;;;;;18.43;14.53;;;12.40;99.90;;;;;;5072381;28;20212;-87
2021/10/30 08:09:05;;;;;;;17.17;14.43;;;12.40;99.90;;;;;;5071924;28;20232;-85
2021/10/30 08:11:32;;;;;;;16.67;13.77;;;12.40;99.90;;;;;;5078082;28;20208;-86
2021/10/30 08:14:00;;;;;;;17.90;14.70;;;12.40;99.90;;;;;;5091805;28;20193;-85
2021/10/30 08:16:27;;;;;;;16.77;13.90;;;12.50;99.90;;;;;;5091788;28;20215;-82
2021/10/30 08:18:54;;;;;;;15.30;13.37;;;12.50;99.90;;;;;;5092530;28;20215;-82
2021/10/30 08:21:22;;;;;;;15.80;13.93;;;12.50;99.90;;;;;;5086406;28;20207;-84
2021/10/30 08:23:49;;;;;;;14.77;13.27;;;12.50;99.90;;;;;;5072319;28;20212;-83
2021/10/30 08:26:17;;;;;;;14.90;13.30;;;12.50;99.90;;;;;;5089451;28;20208;-85
2021/10/30 08:28:43;;;;;;;14.30;12.87;;;12.60;99.90;;;;;;5092515;28;20251;-85
2021/10/30 08:31:12;;;;;;;16.13;12.83;;;12.60;99.90;;;;;;5083068;28;20221;-84
2021/10/30 08:33:40;;;;;;;15.90;13.60;;;12.60;99.90;;;;;;5071825;28;20208;-84
2021/10/30 08:36:07;;;;;;;17.23;12.60;;;12.60;99.90;;;;;;5072722;28;20200;-85
2021/10/30 08:38:34;;;;;;;14.90;13.30;;;12.60;99.90;;;;;;5071998;28;20190;-85
2021/10/30 08:41:01;;;;;;;14.90;12.17;;;12.60;99.90;;;;;;5072279;28;20228;-84
2021/10/30 08:43:29;;;;;;;14.27;12.70;;;12.60;99.90;;;;;;5070206;28;20189;-82
2021/10/30 08:45:57;;;;;;;16.10;11.57;;;12.70;99.90;;;;;;5070694;28;20505;-85
2021/10/30 08:48:30;;;;;;;13.60;12.07;;;12.60;99.90;;;;;;5070807;28;20210;-86
2021/10/30 08:50:57;;;;;;;15.33;11.53;;;12.60;99.90;;;;;;5071167;28;20515;-84
2021/10/30 08:53:25;;;;;;;15.27;11.43;;;12.70;99.90;;;;;;5071354;28;20212;-83
2021/10/30 08:55:53;;;;;;;13.10;11.23;;;12.70;99.90;;;;;;5070925;28;20232;-87
2021/10/30 08:58:20;;;;;;;12.60;10.77;;;12.70;99.90;;;;;;5089967;28;20221;-84
2021/10/30 09:00:50;;;;;;;13.30;11.40;;;12.70;99.90;;;;;;5091134;28;20197;-83
2021/10/30 09:03:19;;;;;;;11.77;10.30;;;12.70;99.90;;;;;;5090933;28;20212;-85
2021/10/30 09:05:49;;;;;;;12.10;10.37;;;12.70;99.90;;;;;;5083316;28;20271;-86
2021/10/30 09:08:18;;;;;;;14.33;11.07;;;12.70;99.90;;;;;;5070065;28;20288;-86
2021/10/30 09:10:46;;;;;;;12.47;10.10;;;12.80;99.90;;;;;;5085100;28;20224;-86
2021/10/30 09:13:14;;;;;;;13.43;10.30;;;12.70;99.90;;;;;;5080279;28;20205;-81
2021/10/30 09:15:43;;;;;;;11.57;10.40;;;12.80;99.90;;;;;;5071276;28;20194;-84
2021/10/30 09:18:22;;;;;;;12.10;10.83;;;12.80;99.90;;;;;;5090673;28;20200;-85
2021/10/30 09:20:52;;;;;;;12.43;9.70;;;12.80;99.90;;;;;;5089483;28;20202;-88
2021/10/30 09:23:20;;;;;;;12.30;10.53;;;12.80;99.90;;;;;;5068888;28;20598;-88
2021/10/30 09:25:58;;;;;;;11.90;9.50;;;12.80;99.90;;;;;;5081914;28;20276;-84
2021/10/30 09:28:26;;;;;;;10.90;9.37;;;12.80;99.90;;;;;;5069358;28;20204;-85
2021/10/30 09:31:04;;;;;;;12.30;9.87;;;12.80;99.90;;;;;;5070045;28;20629;-84
2021/10/30 09:33:32;;;;;;;13.57;9.53;;;12.80;99.90;;;;;;5081343;28;20207;-85
2021/10/30 09:36:09;;;;;;;11.07;9.80;;;12.80;99.90;;;;;;5090324;28;20204;-85
2021/10/30 09:38:37;;;;;;;12.37;9.87;;;12.80;99.90;;;;;;5090002;28;20192;-83
2021/10/30 09:41:19;;;;;;;11.50;10.07;;;12.80;99.90;;;;;;5076391;28;20201;-86
2021/10/30 09:43:55;;;;;;;10.90;9.57;;;12.90;99.90;;;;;;5070869;28;20186;-86
2021/10/30 09:46:23;;;;;;;11.80;9.53;;;12.90;99.90;;;;;;5070915;28;20185;-87
2021/10/30 09:48:50;;;;;;;10.37;9.27;;;12.80;99.90;;;;;;5069984;28;20196;-87
2021/10/30 09:51:35;;;;;;;10.70;9.57;;;12.80;99.90;;;;;;5086693;28;20282;-84
2021/10/30 09:54:05;;;;;;;14.23;9.40;;;12.80;99.90;;;;;;5091523;28;20208;-85
2021/10/30 09:56:39;;;;;;;11.33;9.73;;;12.80;99.90;;;;;;5090558;28;20248;-84
2021/10/30 09:59:12;;;;;;;11.27;9.00;;;12.90;99.90;;;;;;5090272;28;20216;-84
2021/10/30 10:01:39;;;;;;;10.57;9.00;;;12.90;99.90;;;;;;5086268;28;20972;-82
2021/10/30 10:04:06;;;;;;;9.97;9.00;;;12.90;99.90;;;;;;5079442;28;20220;-89
2021/10/30 10:06:36;;;;;;;11.37;8.67;;;12.80;99.90;;;;;;5085118;28;20216;-88
2021/10/30 10:09:03;;;;;;;11.00;9.60;;;12.80;99.90;;;;;;5081007;28;20284;-86
2021/10/30 10:11:31;;;;;;;12.93;9.20;;;12.80;99.90;;;;;;5076949;28;20225;-84
2021/10/30 10:13:58;;;;;;;9.83;8.83;;;12.90;99.90;;;;;;5080095;28;20216;-86
2021/10/30 10:16:26;;;;;;;8.67;7.83;;;12.90;99.90;;;;;;5083753;28;20192;-87
2021/10/30 10:18:54;;;;;;;10.87;8.20;;;12.90;99.90;;;;;;5081408;28;20296;-88
2021/10/30 10:21:23;;;;;;;9.37;8.47;;;12.90;99.90;;;;;;5076965;28;20209;-87
2021/10/30 10:23:51;;;;;;;9.87;8.87;;;12.90;99.90;;;;;;5082488;28;20196;-86
2021/10/30 10:26:18;;;;;;;9.37;8.37;;;13.00;99.90;;;;;;5073233;28;20210;-87
2021/10/30 10:29:02;;;;;;;9.67;8.77;;;13.00;99.90;;;;;;5078297;28;20271;-88
2021/10/30 10:31:29;;;;;;;14.10;9.03;;;13.00;99.90;;;;;;5076777;28;20274;-87
2021/10/30 10:34:07;;;;;;;12.27;9.20;;;12.90;99.90;;;;;;5082544;28;20195;-88
2021/10/30 10:36:35;;;;;;;10.20;8.87;;;13.00;99.90;;;;;;5077163;28;20617;-90
2021/10/30 10:39:17;;;;;;;9.83;8.30;;;13.00;99.90;;;;;;5071940;28;20207;-87
2021/10/30 10:42:03;;;;;;;10.20;8.43;;;12.90;99.90;;;;;;5091294;28;20203;-87
2021/10/30 10:45:02;;;;;;;10.67;8.37;;;13.00;99.90;;;;;;5091017;28;20197;-85
2021/10/30 10:47:54;;;;;;;9.40;7.87;;;13.00;99.90;;;;;;5089466;28;20208;-87
2021/10/30 10:50:26;;;;;;;8.90;7.83;;;13.00;99.90;;;;;;5090332;28;20657;-85
2021/10/30 10:53:23;;;;;;;8.87;7.97;;;13.00;99.90;;;;;;5090358;28;20212;-86
2021/10/30 10:56:24;;;;;;;8.53;7.57;;;13.10;99.90;;;;;;5090649;28;20228;-88
2021/10/30 10:59:13;;;;;;;9.73;7.70;;;13.10;99.90;;;;;;5089954;28;20204;-83
2021/10/30 11:02:01;;;;;;;8.43;7.47;;;13.10;99.90;;;;;;5093794;28;20193;-85
2021/10/30 11:04:29;;;;;;;8.93;8.03;;;13.10;99.90;;;;;;5073912;28;20248;-84
2021/10/30 11:07:12;;;;;;;9.73;8.00;;;13.10;99.90;;;;;;5081534;28;20204;-85
2021/10/30 11:09:53;;;;;;;9.57;8.43;;;13.10;99.90;;;;;;5081354;28;20266;-86
2021/10/30 11:12:22;;;;;;;8.90;8.00;;;13.10;99.90;;;;;;5072851;28;20201;-89
2021/10/30 11:14:57;;;;;;;11.90;7.80;;;13.10;99.90;;;;;;5075034;28;20205;-91
2021/10/30 11:17:24;;;;;;;8.83;7.93;;;13.00;99.90;;;;;;5094272;28;20785;-88
2021/10/30 11:19:53;;;;;;;10.53;8.10;;;13.10;99.90;;;;;;5094060;28;20307;-86
2021/10/30 11:22:23;;;;;;;11.10;8.67;;;13.10;99.90;;;;;;5093917;28;20232;-83
2021/10/30 11:24:53;;;;;;;9.70;8.20;;;13.10;99.90;;;;;;5090123;28;20238;-83
2021/10/30 11:27:20;;;;;;;9.70;8.50;;;13.20;99.90;;;;;;5096173;28;20193;-89
2021/10/30 11:29:49;;;;;;;8.80;7.93;;;13.20;99.90;;;;;;5096086;28;20208;-88
2021/10/30 11:32:17;;;;;;;8.40;7.60;;;13.20;99.90;;;;;;5096114;28;20255;-87
2021/10/30 11:34:51;;;;;;;9.50;8.03;;;13.20;99.90;;;;;;5083283;28;20208;-87
2021/10/30 11:37:19;;;;;;;9.37;8.20;;;13.20;99.90;;;;;;5080977;28;20652;-88
2021/10/30 11:39:47;;;;;;;8.33;7.53;;;13.20;99.90;;;;;;5074885;28;20205;-88
2021/10/30 11:42:14;;;;;;;8.70;7.77;;;13.20;99.90;;;;;;5074265;28;20197;-88
2021/10/30 11:44:53;;;;;;;9.07;8.10;;;13.20;99.90;;;;;;5074162;28;20201;-87
2021/10/30 11:47:25;;;;;;;8.67;7.63;;;13.20;99.90;;;;;;5073589;28;20270;-86
2021/10/30 11:49:53;;;;;;;9.93;7.63;;;13.20;99.90;;;;;;5074527;28;20205;-90
2021/10/30 11:52:21;;;;;;;8.57;7.77;;;13.20;99.90;;;;;;5073410;28;20908;-86
2021/10/30 11:54:48;;;;;;;8.37;7.30;;;13.20;99.90;;;;;;5074814;28;20233;-89
2021/10/30 11:57:15;;;;;;;7.93;7.20;;;13.20;99.90;;;;;;5094263;28;20247;-88
2021/10/30 11:59:43;;;;;;;8.90;8.00;;;13.20;99.90;;;;;;5094695;28;20215;-91
2021/10/30 12:02:14;;;;;;;10.73;8.00;;;13.30;99.90;;;;;;5078547;28;20205;-88
2021/10/30 12:04:42;;;;;;;8.17;7.47;;;13.30;99.90;;;;;;5073906;28;20226;-89
2021/10/30 12:07:10;;;;;;;8.93;7.63;;;13.30;99.90;;;;;;5085776;28;20205;-89
2021/10/30 12:09:40;;;;;;;8.10;7.33;;;13.30;99.90;;;;;;5094553;28;20209;-88
2021/10/30 12:12:10;;;;;;;11.43;7.63;;;13.30;99.90;;;;;;5092993;28;20231;-87
2021/10/30 12:14:39;;;;;;;10.00;7.50;;;13.30;99.90;;;;;;5100666;22;20894;-88
2021/10/30 12:17:07;;;;;;;9.13;7.83;;;13.30;99.90;;;;;;5080353;28;20236;-89
2021/10/30 12:19:36;;;;;;;8.53;7.73;;;13.30;99.90;;;;;;5072714;28;20205;-88
2021/10/30 12:22:08;;;;;;;8.43;7.10;;;13.40;99.90;;;;;;5074053;28;20213;-84
2021/10/30 12:24:36;;;;;;;11.13;7.57;;;13.40;99.90;;;;;;5097534;28;20199;-88
2021/10/30 12:27:07;;;;;;;7.27;6.57;;;13.40;99.90;;;;;;5105218;28;20204;-92
2021/10/30 12:29:40;;;;;;;8.60;7.70;;;13.40;99.90;;;;;;5113831;28;20472;-91
2021/10/30 12:32:09;;;;;;;8.90;7.70;;;13.30;99.90;;;;;;5096429;28;20228;-85
2021/10/30 12:34:37;;;;;;;7.83;7.17;;;13.40;99.90;;;;;;5095927;28;20205;-88
2021/10/30 12:37:06;;;;;;;9.87;7.10;;;13.40;99.90;;;;;;5095767;28;20212;-89